Time;durP1;ratioP1;P1;durP2;ratioP2;P2;SDS_P1;SDS_P2;PMS_P1;PMS_P2;Temp;Humidity;BMP_temperature;BMP_pressure;BME280_temperature;BME280_humidity;BME280_pressure;Samples;Min_cycle;Max_cycle;Signal;HPM_P1;HPM_P2
2024/02/18 00:00:01;;;;;;;9.10;7.25;;;;;;;4.44;83.62;102157.78;2543362;28;20055;-79
2024/02/18 00:01:16;;;;;;;8.77;7.97;;;;;;;4.46;83.47;102158.72;2543126;28;20759;-79
2024/02/18 00:02:29;;;;;;;10.13;7.97;;;;;;;4.47;83.61;102160.50;2542898;28;20132;-80
2024/02/18 00:03:45;;;;;;;8.35;7.15;;;;;;;4.47;83.42;102160.50;2543221;28;20061;-79
2024/02/18 00:04:59;;;;;;;8.02;7.22;;;;;;;4.49;83.59;102157.94;2543692;28;20045;-78
2024/02/18 00:06:13;;;;;;;8.68;6.90;;;;;;;4.49;83.34;102161.44;2544449;28;20048;-80
2024/02/18 00:07:27;;;;;;;10.63;7.10;;;;;;;4.50;83.55;102157.16;2544462;28;20041;-80
2024/02/18 00:08:41;;;;;;;12.38;8.07;;;;;;;4.50;83.25;102159.75;2543471;28;20124;-79
2024/02/18 00:09:55;;;;;;;10.02;7.47;;;;;;;4.48;83.30;102154.50;2544209;28;20055;-79
2024/02/18 00:11:10;;;;;;;11.30;9.07;;;;;;;4.51;83.44;102161.50;2544021;28;20048;-79
2024/02/18 00:12:24;;;;;;;13.40;8.48;;;;;;;4.50;83.28;102155.44;2543587;28;20044;-80
2024/02/18 00:13:38;;;;;;;9.07;7.47;;;;;;;4.52;83.49;102150.34;2543924;28;20125;-79
2024/02/18 00:14:52;;;;;;;18.02;13.48;;;;;;;4.56;83.38;102154.81;2544675;28;20049;-80
2024/02/18 00:16:06;;;;;;;43.25;24.40;;;;;;;4.61;83.03;102148.13;2543861;28;20470;-79
2024/02/18 00:17:20;;;;;;;15.38;8.68;;;;;;;4.66;83.35;102159.53;2544194;28;20041;-80
2024/02/18 00:18:34;;;;;;;12.77;10.23;;;;;;;4.69;83.32;102158.75;2544310;28;20072;-80
2024/02/18 00:19:49;;;;;;;14.95;8.55;;;;;;;4.72;83.60;102159.75;2544518;28;20052;-79
2024/02/18 00:21:04;;;;;;;13.45;8.65;;;;;;;4.75;83.38;102159.00;2543982;28;20107;-78
2024/02/18 00:22:17;;;;;;;13.13;9.75;;;;;;;4.77;83.41;102166.00;2543986;28;20359;-79
2024/02/18 00:23:32;;;;;;;21.35;13.38;;;;;;;4.79;83.39;102158.31;2544061;28;20051;-80
2024/02/18 00:24:45;;;;;;;14.82;11.93;;;;;;;4.81;83.24;102154.94;2543621;28;20044;-80
2024/02/18 00:26:00;;;;;;;14.93;11.23;;;;;;;4.85;83.36;102153.34;2545289;28;20108;-80
2024/02/18 00:27:13;;;;;;;16.13;9.90;;;;;;;4.87;83.51;102159.47;2545043;28;20045;-79
2024/02/18 00:28:28;;;;;;;12.40;9.93;;;;;;;4.87;83.50;102156.00;2544853;28;20041;-79
2024/02/18 00:29:41;;;;;;;16.20;8.05;;;;;;;4.87;83.20;102151.72;2545326;28;20518;-80
2024/02/18 00:30:56;;;;;;;12.57;8.07;;;;;;;4.89;83.51;102160.44;2544928;28;20117;-79
2024/02/18 00:32:10;;;;;;;14.43;8.95;;;;;;;4.91;83.26;102160.50;2544969;28;20052;-79
2024/02/18 00:33:25;;;;;;;12.65;9.05;;;;;;;4.90;83.41;102159.59;2545074;28;20076;-79
2024/02/18 00:34:39;;;;;;;12.05;7.97;;;;;;;4.92;83.44;102151.91;2544931;28;20087;-79
2024/02/18 00:35:55;;;;;;;14.95;10.13;;;;;;;4.91;83.16;102156.19;2545019;28;20500;-80
2024/02/18 00:37:08;;;;;;;11.40;6.95;;;;;;;4.90;83.36;102157.00;2545076;28;20063;-80
2024/02/18 00:38:22;;;;;;;9.82;7.97;;;;;;;4.92;83.39;102152.78;2542360;28;20057;-79
2024/02/18 00:39:36;;;;;;;10.77;7.78;;;;;;;4.94;83.19;102155.44;2546925;28;20048;-79
2024/02/18 00:40:51;;;;;;;11.00;7.30;;;;;;;4.95;83.11;102150.31;2547322;28;20150;-80
2024/02/18 00:42:06;;;;;;;10.30;7.38;;;;;;;4.96;83.00;102146.03;2546490;28;20520;-79
2024/02/18 00:43:20;;;;;;;10.32;7.07;;;;;;;4.93;83.19;102146.81;2546821;28;20552;-79
2024/02/18 00:44:34;;;;;;;8.05;7.20;;;;;;;4.91;83.10;102144.97;2546097;28;20428;-79
2024/02/18 00:45:48;;;;;;;11.80;6.93;;;;;;;4.90;83.15;102138.03;2547280;28;20108;-79
2024/02/18 00:47:02;;;;;;;9.55;7.63;;;;;;;4.90;83.03;102138.03;2547185;28;20224;-79
2024/02/18 00:48:17;;;;;;;12.88;7.30;;;;;;;4.89;83.10;102142.31;2546573;28;20040;-78
2024/02/18 00:49:32;;;;;;;9.32;7.38;;;;;;;4.89;82.99;102142.31;2546213;28;20052;-79
2024/02/18 00:50:47;;;;;;;9.90;8.82;;;;;;;4.88;83.16;102134.47;2547563;28;20075;-79
2024/02/18 00:52:02;;;;;;;8.43;7.32;;;;;;;4.88;83.10;102139.66;2547550;28;20455;-79
2024/02/18 00:53:16;;;;;;;10.35;7.32;;;;;;;4.87;83.08;102137.91;2553982;28;20105;-79
2024/02/18 00:54:30;;;;;;;9.23;7.80;;;;;;;4.87;83.00;102133.59;2545198;28;20045;-79
2024/02/18 00:55:44;;;;;;;10.55;6.47;;;;;;;4.86;82.96;102134.44;2545754;28;20120;-80
2024/02/18 00:56:58;;;;;;;9.93;8.13;;;;;;;4.86;82.95;102141.34;2545986;28;20132;-80
2024/02/18 00:58:13;;;;;;;11.45;6.53;;;;;;;4.85;82.69;102129.19;2546272;28;20096;-79
2024/02/18 00:59:26;;;;;;;11.25;7.72;;;;;;;4.83;82.90;102129.16;2545156;28;20045;-79
2024/02/18 01:00:41;;;;;;;10.38;7.13;;;;;;;4.81;82.93;102133.38;2545044;28;20045;-79
2024/02/18 01:01:54;;;;;;;9.93;7.75;;;;;;;4.78;82.74;102126.38;2546143;28;20451;-79
2024/02/18 01:03:09;;;;;;;10.57;7.13;;;;;;;4.76;82.85;102122.84;2546531;28;20056;-79
2024/02/18 01:04:22;;;;;;;12.75;7.32;;;;;;;4.76;82.75;102125.44;2546769;28;20036;-79
2024/02/18 01:05:37;;;;;;;9.70;8.35;;;;;;;4.75;82.90;102130.53;2547152;28;20465;-78
2024/02/18 01:06:50;;;;;;;14.60;7.93;;;;;;;4.74;82.57;102126.19;2547275;28;20056;-80
2024/02/18 01:08:06;;;;;;;10.73;8.18;;;;;;;4.73;82.78;102124.44;2546710;28;20152;-79
2024/02/18 01:09:20;;;;;;;8.50;7.45;;;;;;;4.72;82.75;102133.00;2546905;28;20044;-81
2024/02/18 01:10:34;;;;;;;12.75;7.95;;;;;;;4.71;82.77;102126.09;2547489;28;20105;-79
2024/02/18 01:11:48;;;;;;;10.20;7.50;;;;;;;4.72;82.65;102125.25;2544622;28;20069;-80
2024/02/18 01:13:02;;;;;;;11.02;8.65;;;;;;;4.71;82.95;102123.50;2544266;28;20524;-79
2024/02/18 01:14:16;;;;;;;9.35;8.07;;;;;;;4.69;82.79;102118.25;2544707;28;20506;-82
2024/02/18 01:15:30;;;;;;;20.38;12.60;;;;;;;4.69;82.86;102117.38;2545302;28;20209;-80
2024/02/18 01:16:44;;;;;;;10.43;8.13;;;;;;;4.67;83.09;102121.59;2544357;28;20049;-80
2024/02/18 01:17:58;;;;;;;8.48;7.43;;;;;;;4.63;82.73;102112.88;2545185;28;20077;-80
2024/02/18 01:19:11;;;;;;;14.23;7.65;;;;;;;4.61;82.79;102117.09;2545125;28;20041;-79
2024/02/18 01:20:26;;;;;;;8.98;7.85;;;;;;;4.57;82.60;102118.69;2544570;28;20391;-80
2024/02/18 01:21:39;;;;;;;11.48;7.90;;;;;;;4.55;82.60;102124.59;2544981;28;20045;-81
2024/02/18 01:22:54;;;;;;;14.93;7.85;;;;;;;4.51;82.59;102118.41;2545259;28;20494;-80
2024/02/18 01:24:09;;;;;;;9.43;7.03;;;;;;;4.49;82.75;102122.66;2545276;28;20045;-79
2024/02/18 01:25:23;;;;;;;9.00;7.88;;;;;;;4.47;82.81;102123.44;2545253;28;20045;-80
2024/02/18 01:26:37;;;;;;;12.43;8.50;;;;;;;4.46;82.70;102119.06;2545187;28;20048;-80
2024/02/18 01:27:51;;;;;;;11.93;7.97;;;;;;;4.45;82.80;102119.91;2544834;28;20546;-80
2024/02/18 01:29:06;;;;;;;9.43;8.50;;;;;;;4.43;82.83;102117.25;2545024;28;20056;-80
2024/02/18 01:30:20;;;;;;;7.93;7.05;;;;;;;4.42;82.82;102117.19;2545469;28;20064;-80
2024/02/18 01:31:33;;;;;;;13.05;9.38;;;;;;;4.42;82.92;102117.19;2545206;28;20065;-80
2024/02/18 01:32:48;;;;;;;15.32;9.48;;;;;;;4.43;83.04;102124.13;2544484;28;20425;-79
2024/02/18 01:34:01;;;;;;;12.00;9.07;;;;;;;4.44;83.06;102118.09;2544644;28;20053;-80
2024/02/18 01:35:16;;;;;;;55.95;31.52;;;;;;;4.45;83.08;102123.34;2545567;28;20443;-79
2024/02/18 01:36:30;;;;;;;16.20;13.88;;;;;;;4.44;83.11;102118.09;2546409;28;20044;-80
2024/02/18 01:37:44;;;;;;;10.93;8.73;;;;;;;4.44;83.06;102119.03;2546455;28;20461;-80
2024/02/18 01:38:58;;;;;;;11.35;10.02;;;;;;;4.42;82.93;102119.78;2545907;28;20048;-80
2024/02/18 01:40:14;;;;;;;12.75;9.45;;;;;;;4.40;83.10;102119.69;2545714;28;20041;-80
2024/02/18 01:41:27;;;;;;;14.75;8.85;;;;;;;4.39;82.99;102115.38;2545420;28;20064;-80
2024/02/18 01:42:42;;;;;;;10.48;8.13;;;;;;;4.41;83.22;102115.41;2545413;28;20076;-79
2024/02/18 01:43:55;;;;;;;9.68;8.48;;;;;;;4.42;83.20;102112.03;2545997;28;20048;-79
2024/02/18 01:45:11;;;;;;;10.93;9.07;;;;;;;4.43;83.30;102113.78;2545247;28;20478;-79
2024/02/18 01:46:25;;;;;;;9.07;7.85;;;;;;;4.44;83.26;102120.69;2545182;28;20671;-79
2024/02/18 01:47:44;;;;;;;16.35;8.75;;;;;;;4.44;83.30;102112.94;2545043;28;20059;-80
2024/02/18 01:48:57;;;;;;;10.52;8.55;;;;;;;4.48;83.23;102107.09;2544283;28;20064;-79
2024/02/18 01:50:15;;;;;;;11.20;8.55;;;;;;;4.48;83.33;102110.53;2545489;28;20048;-79
2024/02/18 01:51:29;;;;;;;9.52;7.63;;;;;;;4.49;83.28;102117.50;2545274;28;20049;-80
2024/02/18 01:52:44;;;;;;;13.30;11.13;;;;;;;4.48;83.16;102115.72;2544402;28;20127;-80
2024/02/18 01:53:58;;;;;;;11.77;8.30;;;;;;;4.47;83.31;102110.50;2544443;28;20498;-80
2024/02/18 01:55:15;;;;;;;16.90;8.50;;;;;;;4.46;83.29;102108.72;2545193;28;20036;-79
2024/02/18 01:56:29;;;;;;;15.23;10.38;;;;;;;4.45;83.18;102105.25;2546000;28;20041;-80
2024/02/18 01:57:44;;;;;;;12.50;9.05;;;;;;;4.43;83.00;102104.31;2546960;28;20116;-80
2024/02/18 01:58:58;;;;;;;9.15;7.45;;;;;;;4.43;83.18;102103.44;2546751;28;20159;-80
2024/02/18 02:00:16;;;;;;;12.27;8.73;;;;;;;4.41;83.13;102103.34;2546348;28;20105;-78
2024/02/18 02:01:29;;;;;;;9.23;7.70;;;;;;;4.42;83.23;102104.28;2550855;28;20071;-79
2024/02/18 02:02:45;;;;;;;10.07;7.72;;;;;;;4.41;83.03;102102.47;2549412;28;20049;-80
2024/02/18 02:03:58;;;;;;;10.23;8.68;;;;;;;4.42;83.29;102107.72;2544254;28;20061;-79
2024/02/18 02:05:14;;;;;;;12.60;9.60;;;;;;;4.43;83.39;102104.31;2545653;28;20137;-79
2024/02/18 02:06:29;;;;;;;9.55;7.47;;;;;;;4.44;83.29;102100.94;2544157;28;20044;-80
2024/02/18 02:07:43;;;;;;;11.23;9.10;;;;;;;4.44;83.36;102105.19;2544594;28;20057;-80
2024/02/18 02:08:57;;;;;;;12.98;8.20;;;;;;;4.46;83.38;102098.38;2543973;28;20049;-79
2024/02/18 02:10:12;;;;;;;10.00;7.75;;;;;;;4.48;83.38;102102.78;2544643;28;20059;-80
2024/02/18 02:11:27;;;;;;;10.65;8.50;;;;;;;4.50;83.28;102101.16;2544009;28;20048;-79
2024/02/18 02:12:42;;;;;;;18.70;9.85;;;;;;;4.53;83.45;102095.22;2543792;28;20047;-79
2024/02/18 02:13:55;;;;;;;9.73;8.30;;;;;;;4.54;83.38;102096.97;2544021;28;20048;-80
2024/02/18 02:15:10;;;;;;;9.43;8.43;;;;;;;4.55;83.15;102098.75;2544614;28;20148;-80
2024/02/18 02:16:26;;;;;;;9.73;8.30;;;;;;;4.55;83.33;102106.50;2543741;28;20064;-80
2024/02/18 02:17:41;;;;;;;11.15;8.82;;;;;;;4.54;83.21;102108.22;2543870;28;20116;-79
2024/02/18 02:18:56;;;;;;;10.60;8.85;;;;;;;4.54;83.10;102094.38;2544383;28;20052;-80
2024/02/18 02:20:11;;;;;;;11.75;9.40;;;;;;;4.51;83.33;102096.84;2543608;28;20490;-79
2024/02/18 02:21:24;;;;;;;11.02;8.10;;;;;;;4.49;83.36;102099.41;2544402;28;20045;-80
2024/02/18 02:22:39;;;;;;;13.43;8.93;;;;;;;4.49;83.29;102101.06;2543963;28;20048;-80
2024/02/18 02:23:52;;;;;;;11.98;8.32;;;;;;;4.47;83.45;102100.16;2543896;28;20064;-79
2024/02/18 02:25:09;;;;;;;13.30;8.40;;;;;;;4.45;83.37;102100.09;2544114;28;20135;-80
2024/02/18 02:26:24;;;;;;;10.38;8.48;;;;;;;4.44;83.45;102103.50;2544307;28;20050;-80
2024/02/18 02:27:42;;;;;;;12.00;8.18;;;;;;;4.46;83.34;102101.84;2544252;28;20474;-79
2024/02/18 02:29:11;;;;;;;11.68;9.18;;;;;;;4.48;83.33;102096.75;2544162;28;20536;-79
2024/02/18 02:30:26;;;;;;;10.75;8.85;;;;;;;4.48;83.39;102096.75;2544181;28;20482;-79
2024/02/18 02:31:41;;;;;;;11.10;8.15;;;;;;;4.50;83.31;102105.44;2544317;28;20049;-80
2024/02/18 02:32:56;;;;;;;12.20;9.57;;;;;;;4.50;82.88;102105.44;2543378;28;20060;-79
2024/02/18 02:34:09;;;;;;;11.98;9.10;;;;;;;4.53;83.27;102100.41;2544431;28;20052;-79
2024/02/18 02:35:26;;;;;;;9.57;8.40;;;;;;;4.55;83.35;102104.81;2544299;28;20412;-79
2024/02/18 02:36:40;;;;;;;9.55;8.05;;;;;;;4.57;83.35;102099.72;2543832;28;20049;-79
2024/02/18 02:37:57;;;;;;;11.70;8.95;;;;;;;4.58;83.43;102104.03;2544469;28;20141;-79
2024/02/18 02:39:11;;;;;;;10.55;9.45;;;;;;;4.58;83.22;102101.47;2544587;28;20087;-79
2024/02/18 02:40:26;;;;;;;10.57;8.60;;;;;;;4.61;83.53;102098.09;2543669;28;20147;-79
2024/02/18 02:41:40;;;;;;;11.43;9.63;;;;;;;4.61;83.18;102095.53;2543934;28;20056;-79
2024/02/18 02:42:54;;;;;;;11.15;9.45;;;;;;;4.62;83.40;102094.69;2543329;28;20079;-79
2024/02/18 02:44:09;;;;;;;11.80;9.20;;;;;;;4.59;83.31;102092.88;2544035;28;20102;-80
2024/02/18 02:45:24;;;;;;;15.50;9.98;;;;;;;4.59;83.22;102098.03;2544307;28;20439;-79
2024/02/18 02:46:37;;;;;;;11.43;8.85;;;;;;;4.59;83.12;102095.44;2544425;28;20045;-79
2024/02/18 02:47:52;;;;;;;12.23;9.48;;;;;;;4.58;82.98;102088.53;2543562;28;20120;-80
2024/02/18 02:49:05;;;;;;;13.95;8.70;;;;;;;4.56;82.90;102093.63;2536440;28;20053;-79
2024/02/18 02:50:20;;;;;;;10.82;8.95;;;;;;;4.57;82.82;102091.94;2544474;28;20091;-79
2024/02/18 02:51:34;;;;;;;14.38;8.70;;;;;;;4.53;83.04;102087.47;2544764;28;20041;-80
2024/02/18 02:52:48;;;;;;;11.43;8.70;;;;;;;4.54;82.81;102086.63;2543918;28;20040;-79
2024/02/18 02:54:02;;;;;;;12.68;9.35;;;;;;;4.53;83.14;102093.50;2544095;28;20045;-80
2024/02/18 02:55:16;;;;;;;14.60;9.07;;;;;;;4.50;82.95;102083.06;2544649;28;20041;-79
2024/02/18 02:56:30;;;;;;;12.23;9.57;;;;;;;4.49;82.88;102082.97;2543603;28;20052;-79
2024/02/18 02:57:45;;;;;;;12.43;8.93;;;;;;;4.47;83.11;102080.34;2544223;28;20136;-79
2024/02/18 02:58:58;;;;;;;10.40;9.25;;;;;;;4.46;82.74;102078.56;2544327;28;20060;-79
2024/02/18 03:00:15;;;;;;;11.75;9.23;;;;;;;4.46;83.06;102083.75;2544249;28;20076;-80
2024/02/18 03:01:29;;;;;;;9.20;8.20;;;;;;;4.46;83.00;102083.75;2545162;28;20140;-79
2024/02/18 03:02:43;;;;;;;11.05;8.75;;;;;;;4.46;83.08;102077.69;2544013;28;20052;-79
2024/02/18 03:03:57;;;;;;;15.93;8.43;;;;;;;4.45;83.26;102078.53;2543144;28;20418;-79
2024/02/18 03:05:11;;;;;;;12.38;9.88;;;;;;;4.45;83.27;102078.53;2543956;28;20128;-79
2024/02/18 03:06:25;;;;;;;10.85;8.75;;;;;;;4.45;83.33;102075.94;2543415;28;20462;-79
2024/02/18 03:07:39;;;;;;;10.63;8.23;;;;;;;4.46;83.49;102069.94;2543458;28;20116;-79
2024/02/18 03:08:53;;;;;;;11.27;8.95;;;;;;;4.44;83.36;102071.56;2543449;28;20049;-79
2024/02/18 03:10:09;;;;;;;10.82;8.15;;;;;;;4.44;83.28;102075.06;2549635;28;20060;-79
2024/02/18 03:11:23;;;;;;;16.20;9.98;;;;;;;4.43;83.46;102069.84;2546719;28;20057;-80
2024/02/18 03:12:37;;;;;;;11.07;8.65;;;;;;;4.43;83.31;102075.88;2543388;28;20383;-80
2024/02/18 03:13:51;;;;;;;14.63;8.15;;;;;;;4.42;83.31;102074.13;2543902;28;20426;-80
2024/02/18 03:15:06;;;;;;;11.65;8.60;;;;;;;4.41;83.41;102063.72;2543650;28;20049;-80
2024/02/18 03:16:21;;;;;;;11.90;8.90;;;;;;;4.41;83.11;102074.06;2545220;28;20040;-79
2024/02/18 03:17:35;;;;;;;12.80;9.70;;;;;;;4.37;83.16;102067.88;2544434;28;20079;-81
2024/02/18 03:18:49;;;;;;;12.48;7.55;;;;;;;4.34;83.15;102062.59;2543758;28;20049;-79
2024/02/18 03:20:07;;;;;;;9.43;7.40;;;;;;;4.32;83.47;102064.25;2544454;28;20108;-80
2024/02/18 03:21:22;;;;;;;16.88;8.40;;;;;;;4.28;83.26;102070.09;2544793;28;20108;-79
2024/02/18 03:22:37;;;;;;;12.68;8.13;;;;;;;4.23;83.17;102064.75;2544663;28;20045;-79
2024/02/18 03:23:53;;;;;;;14.10;9.38;;;;;;;4.21;83.17;102060.31;2544799;28;20052;-79
2024/02/18 03:25:08;;;;;;;12.82;7.00;;;;;;;4.17;83.08;102064.50;2536498;28;20041;-79
2024/02/18 03:26:21;;;;;;;16.38;8.40;;;;;;;4.12;83.03;102056.56;2544494;28;20045;-79
2024/02/18 03:27:36;;;;;;;13.20;8.60;;;;;;;4.11;83.11;102059.09;2544082;28;20105;-80
2024/02/18 03:28:49;;;;;;;11.40;7.68;;;;;;;4.09;83.23;102064.19;2544131;28;20037;-79
2024/02/18 03:30:05;;;;;;;9.65;8.65;;;;;;;4.09;83.26;102060.75;2545512;28;20072;-80
2024/02/18 03:31:19;;;;;;;15.07;9.27;;;;;;;4.07;83.17;102057.19;2544380;28;20635;-80
2024/02/18 03:32:36;;;;;;;10.00;8.40;;;;;;;4.07;83.29;102057.19;2543777;28;20090;-80
2024/02/18 03:33:50;;;;;;;10.98;9.10;;;;;;;4.05;83.56;102052.00;2544532;28;20049;-79
2024/02/18 03:35:05;;;;;;;13.25;8.00;;;;;;;4.06;83.35;102060.63;2544591;28;20462;-79
2024/02/18 03:36:18;;;;;;;11.45;8.65;;;;;;;4.05;83.46;102056.25;2544064;28;20472;-78
2024/02/18 03:37:33;;;;;;;10.85;8.10;;;;;;;4.05;83.46;102061.41;2544352;28;20103;-79
2024/02/18 03:38:47;;;;;;;10.27;9.02;;;;;;;4.04;83.48;102059.66;2545313;28;20045;-79
2024/02/18 03:40:03;;;;;;;13.40;9.05;;;;;;;4.04;83.71;102054.50;2544535;28;20057;-79
2024/02/18 03:41:17;;;;;;;13.40;9.80;;;;;;;4.04;83.60;102052.78;2544879;28;20056;-79
2024/02/18 03:42:31;;;;;;;13.43;10.00;;;;;;;4.02;83.52;102056.13;2544494;28;20538;-79
2024/02/18 03:43:45;;;;;;;10.15;8.18;;;;;;;4.03;83.76;102055.34;2544386;28;20053;-79
2024/02/18 03:44:59;;;;;;;13.63;9.18;;;;;;;4.00;83.52;102055.19;2543694;28;20045;-80
2024/02/18 03:46:13;;;;;;;10.68;8.30;;;;;;;3.98;83.63;102056.84;2545213;28;20049;-79
2024/02/18 03:47:27;;;;;;;12.13;10.93;;;;;;;3.98;83.79;102055.13;2544474;28;20094;-79
2024/02/18 03:48:42;;;;;;;12.88;8.05;;;;;;;3.98;83.84;102059.44;2545215;28;20052;-78
2024/02/18 03:49:56;;;;;;;10.20;7.90;;;;;;;3.97;83.88;102048.19;2543864;28;20414;-79
2024/02/18 03:51:10;;;;;;;12.45;8.68;;;;;;;3.99;84.17;102049.13;2545529;28;20056;-79
2024/02/18 03:52:24;;;;;;;10.90;9.15;;;;;;;4.02;83.95;102049.25;2545149;28;20120;-78
2024/02/18 03:53:38;;;;;;;10.35;8.95;;;;;;;4.05;84.03;102049.41;2545878;28;20049;-79
2024/02/18 03:54:52;;;;;;;13.10;8.60;;;;;;;4.07;84.21;102044.28;2545694;28;20112;-79
2024/02/18 03:56:06;;;;;;;14.43;10.05;;;;;;;4.11;84.36;102049.66;2543699;28;20103;-80
2024/02/18 03:57:21;;;;;;;10.45;8.95;;;;;;;4.12;84.20;102047.94;2544084;28;20041;-79
2024/02/18 03:58:35;;;;;;;9.40;8.50;;;;;;;4.13;84.00;102053.19;2545372;28;20052;-79
2024/02/18 03:59:49;;;;;;;12.48;8.13;;;;;;;4.14;84.03;102054.06;2544196;28;20398;-79
2024/02/18 04:01:03;;;;;;;9.52;8.52;;;;;;;4.14;83.85;102054.06;2543325;28;20053;-78
2024/02/18 04:02:18;;;;;;;11.27;8.13;;;;;;;4.15;84.14;102045.47;2543550;28;20037;-79
2024/02/18 04:03:31;;;;;;;12.75;8.35;;;;;;;4.16;83.92;102047.25;2544704;28;20430;-79
2024/02/18 04:04:47;;;;;;;12.70;8.13;;;;;;;4.16;83.97;102052.41;2544184;28;20047;-79
2024/02/18 04:06:01;;;;;;;15.07;9.15;;;;;;;4.15;83.97;102048.06;2546164;28;20049;-79
2024/02/18 04:07:15;;;;;;;15.18;9.32;;;;;;;4.13;83.92;102044.53;2545555;28;20223;-79
2024/02/18 04:08:29;;;;;;;15.38;10.55;;;;;;;4.12;83.95;102047.94;2544866;28;20045;-78
2024/02/18 04:09:43;;;;;;;18.88;9.10;;;;;;;4.12;84.08;102040.19;2546617;28;20045;-79
2024/02/18 04:10:57;;;;;;;11.10;9.02;;;;;;;4.13;84.27;102034.19;2546179;28;20045;-80
2024/02/18 04:12:11;;;;;;;10.23;8.68;;;;;;;4.14;84.10;102038.56;2545383;28;20065;-79
2024/02/18 04:13:25;;;;;;;11.27;10.05;;;;;;;4.13;83.87;102034.19;2546988;28;20072;-79
2024/02/18 04:14:39;;;;;;;9.75;7.72;;;;;;;4.12;83.77;102042.78;2547965;28;20426;-80
2024/02/18 04:15:53;;;;;;;9.90;8.93;;;;;;;4.11;83.82;102043.59;2546713;28;20052;-79
2024/02/18 04:17:07;;;;;;;11.98;8.77;;;;;;;4.13;83.72;102047.09;2546925;28;20523;-79
2024/02/18 04:18:21;;;;;;;12.55;9.68;;;;;;;4.13;84.07;102036.78;2553244;28;20041;-79
2024/02/18 04:19:37;;;;;;;11.05;8.95;;;;;;;4.14;83.84;102039.44;2554962;28;20059;-79
2024/02/18 04:20:52;;;;;;;14.00;8.50;;;;;;;4.16;84.13;102049.84;2551098;28;20045;-79
2024/02/18 04:22:06;;;;;;;10.95;7.30;;;;;;;4.19;84.13;102042.19;2548125;28;20056;-79
2024/02/18 04:23:20;;;;;;;10.15;7.45;;;;;;;4.20;84.13;102035.31;2548241;28;20076;-79
2024/02/18 04:24:34;;;;;;;13.38;9.30;;;;;;;4.22;83.99;102042.31;2547863;28;20041;-79
2024/02/18 04:25:47;;;;;;;9.32;8.15;;;;;;;4.25;84.13;102036.38;2548741;28;20056;-79
2024/02/18 04:27:02;;;;;;;12.45;7.38;;;;;;;4.27;83.94;102040.78;2548657;28;20485;-78
2024/02/18 04:28:15;;;;;;;10.13;8.00;;;;;;;4.30;84.19;102034.88;2548905;28;20054;-78
2024/02/18 04:29:30;;;;;;;9.65;7.72;;;;;;;4.31;84.16;102040.09;2549434;28;20514;-78
2024/02/18 04:30:43;;;;;;;10.25;9.10;;;;;;;4.33;84.29;102030.69;2550254;28;20053;-79
2024/02/18 04:31:58;;;;;;;9.52;8.13;;;;;;;4.34;84.02;102037.63;2549323;28;20072;-79
2024/02/18 04:33:11;;;;;;;11.10;8.15;;;;;;;4.35;83.94;102030.75;2549344;28;20052;-79
2024/02/18 04:34:26;;;;;;;13.05;8.07;;;;;;;4.35;83.86;102033.34;2550023;28;20041;-79
2024/02/18 04:35:39;;;;;;;11.15;8.32;;;;;;;4.36;83.85;102036.00;2549899;28;20041;-79
2024/02/18 04:36:55;;;;;;;14.05;9.60;;;;;;;4.35;84.00;102033.34;2548864;28;20161;-79
2024/02/18 04:38:09;;;;;;;11.25;8.07;;;;;;;4.34;83.77;102032.47;2549533;28;20052;-79
2024/02/18 04:39:23;;;;;;;14.27;8.45;;;;;;;4.36;83.97;102033.41;2549699;28;20140;-79
2024/02/18 04:40:37;;;;;;;13.27;8.30;;;;;;;4.36;83.83;102036.00;2545070;28;20049;-78
2024/02/18 04:41:51;;;;;;;11.07;7.80;;;;;;;4.35;83.89;102029.03;2548874;28;20064;-79
2024/02/18 04:43:05;;;;;;;14.70;11.15;;;;;;;4.34;84.01;102026.41;2548140;28;20053;-78
2024/02/18 04:44:19;;;;;;;15.38;12.43;;;;;;;4.33;83.93;102025.50;2547643;28;20485;-78
2024/02/18 04:45:33;;;;;;;15.30;10.70;;;;;;;4.32;83.95;102025.47;2547879;28;20049;-79
2024/02/18 04:46:47;;;;;;;12.40;9.20;;;;;;;4.31;83.83;102031.44;2547806;28;20477;-79
2024/02/18 04:48:01;;;;;;;10.20;8.38;;;;;;;4.29;83.59;102028.81;2547728;28;20463;-79
2024/02/18 04:49:15;;;;;;;10.95;7.65;;;;;;;4.27;83.75;102025.28;2548837;28;20117;-80
2024/02/18 04:50:29;;;;;;;9.65;7.32;;;;;;;4.26;83.79;102028.72;2548695;28;20040;-81
2024/02/18 04:51:43;;;;;;;23.20;8.52;;;;;;;4.24;83.61;102030.34;2548925;28;20071;-81
2024/02/18 04:52:58;;;;;;;15.15;8.65;;;;;;;4.22;84.04;102031.97;2548235;28;20041;-80
2024/02/18 04:54:14;;;;;;;17.00;9.15;;;;;;;4.19;83.78;102037.03;2540712;28;20079;-81
2024/02/18 04:55:27;;;;;;;11.23;8.38;;;;;;;4.17;83.81;102038.66;2548990;28;20064;-80
2024/02/18 04:56:42;;;;;;;9.00;6.95;;;;;;;4.15;83.61;102046.34;2548258;28;20056;-81
2024/02/18 04:57:55;;;;;;;11.30;8.00;;;;;;;4.13;83.64;102042.84;2548936;28;20052;-80
2024/02/18 04:59:10;;;;;;;9.73;6.80;;;;;;;4.13;83.83;102044.53;2548895;28;20068;-81
2024/02/18 05:00:23;;;;;;;12.27;8.23;;;;;;;4.11;83.57;102038.44;2548294;28;20052;-80
2024/02/18 05:01:38;;;;;;;11.18;7.60;;;;;;;4.09;83.78;102040.06;2548889;28;20076;-80
2024/02/18 05:02:52;;;;;;;16.35;8.88;;;;;;;4.05;83.59;102033.91;2548664;28;20056;-80
2024/02/18 05:04:06;;;;;;;8.45;7.43;;;;;;;4.03;83.58;102032.09;2547911;28;20055;-79
2024/02/18 05:05:20;;;;;;;13.27;10.23;;;;;;;4.01;83.57;102041.47;2548069;28;20048;-81
2024/02/18 05:06:34;;;;;;;16.65;8.98;;;;;;;3.98;83.57;102037.06;2549247;28;20124;-79
2024/02/18 05:07:48;;;;;;;9.60;7.95;;;;;;;3.97;83.61;102039.56;2548015;28;20045;-80
2024/02/18 05:09:04;;;;;;;9.02;8.02;;;;;;;3.95;83.44;102031.78;2547240;28;20087;-80
2024/02/18 05:10:17;;;;;;;9.40;8.43;;;;;;;3.94;83.53;102035.16;2548697;28;20525;-82
2024/02/18 05:11:32;;;;;;;9.07;7.90;;;;;;;3.93;83.75;102034.28;2547790;28;20120;-81
2024/02/18 05:12:45;;;;;;;16.23;9.60;;;;;;;3.92;83.95;102032.53;2545318;28;20068;-80
2024/02/18 05:14:00;;;;;;;18.25;11.82;;;;;;;3.93;83.75;102031.69;2545409;28;20055;-81
2024/02/18 05:15:14;;;;;;;10.93;7.57;;;;;;;3.93;83.85;102033.41;2537449;28;20125;-80
2024/02/18 05:16:28;;;;;;;14.23;9.32;;;;;;;3.93;83.61;102036.00;2540659;28;20052;-81
2024/02/18 05:17:42;;;;;;;10.48;7.35;;;;;;;3.94;83.76;102030.00;2545493;28;20049;-80
2024/02/18 05:18:56;;;;;;;10.88;8.82;;;;;;;3.93;83.75;102028.25;2545221;28;20049;-80
2024/02/18 05:20:10;;;;;;;12.95;7.88;;;;;;;3.91;83.75;102022.13;2545070;28;20049;-80
2024/02/18 05:21:25;;;;;;;15.38;7.97;;;;;;;3.89;83.96;102022.06;2545997;28;20132;-80
2024/02/18 05:22:39;;;;;;;9.77;7.70;;;;;;;3.89;83.86;102021.19;2547017;28;20041;-79
2024/02/18 05:23:53;;;;;;;9.60;7.90;;;;;;;3.89;83.74;102018.59;2546188;28;20174;-80
2024/02/18 05:25:09;;;;;;;10.23;8.45;;;;;;;3.89;83.90;102016.00;2547562;28;20454;-79
2024/02/18 05:26:25;;;;;;;11.90;8.00;;;;;;;3.89;83.72;102019.47;2553433;28;20041;-80
2024/02/18 05:27:39;;;;;;;15.15;7.50;;;;;;;3.90;83.94;102013.50;2545675;28;20045;-79
2024/02/18 05:28:54;;;;;;;9.27;7.80;;;;;;;3.90;83.91;102010.03;2545431;28;20046;-80
2024/02/18 05:30:08;;;;;;;10.18;8.70;;;;;;;3.90;84.17;102013.50;2545848;28;20053;-80
2024/02/18 05:31:24;;;;;;;9.10;8.02;;;;;;;3.90;84.05;102012.63;2546108;28;20103;-81
2024/02/18 05:32:38;;;;;;;10.45;7.90;;;;;;;3.90;84.00;102017.78;2545227;28;20041;-80
2024/02/18 05:33:53;;;;;;;8.93;8.02;;;;;;;3.89;84.38;102011.72;2546045;28;20123;-80
2024/02/18 05:35:07;;;;;;;11.07;7.78;;;;;;;3.90;84.20;102012.63;2546155;28;20061;-80
2024/02/18 05:36:22;;;;;;;11.63;8.18;;;;;;;3.90;84.01;102012.63;2545233;28;20164;-81
2024/02/18 05:37:35;;;;;;;10.65;7.70;;;;;;;3.90;nan;102010.03;2546070;28;20494;-80
2024/02/18 05:38:52;;;;;;;12.43;7.97;;;;;;;3.92;84.14;102008.38;2545799;28;20140;-81
2024/02/18 05:40:09;;;;;;;12.60;8.35;;;;;;;3.91;84.28;102002.34;2546237;28;20053;-81
2024/02/18 05:41:23;;;;;;;13.75;9.70;;;;;;;3.93;84.19;102002.41;2546916;28;20060;-80
2024/02/18 05:42:37;;;;;;;12.65;9.65;;;;;;;3.94;84.34;101999.00;2545393;28;20049;-79
2024/02/18 05:43:51;;;;;;;11.25;7.63;;;;;;;3.94;84.11;101999.88;2545237;28;20076;-80
2024/02/18 05:45:06;;;;;;;14.13;9.30;;;;;;;3.96;84.24;102006.81;2547071;28;20057;-80
2024/02/18 05:46:20;;;;;;;18.60;9.13;;;;;;;3.96;84.20;102002.53;2546966;28;20076;-81